sensor_id;sensor_type;location;lat;lon;timestamp;pressure;altitude;pressure_sealevel;temperature;humidity
10988;BME280;5547;42.672;23.230;2023-08-06T00:01:24;92198.53;;;15.84;100.00
10988;BME280;5547;42.672;23.230;2023-08-06T00:04:25;92222.78;;;15.75;100.00
10988;BME280;5547;42.672;23.230;2023-08-06T00:07:26;92251.19;;;16.17;100.00
10988;BME280;5547;42.672;23.230;2023-08-06T00:10:26;92215.38;;;15.85;100.00
10988;BME280;5547;42.672;23.230;2023-08-06T00:13:26;92213.13;;;15.68;100.00
10988;BME280;5547;42.672;23.230;2023-08-06T00:16:27;92234.78;;;15.94;100.00
10988;BME280;5547;42.672;23.230;2023-08-06T00:19:27;92234.59;;;15.98;100.00
10988;BME280;5547;42.672;23.230;2023-08-06T00:22:28;92264.72;;;16.23;100.00
10988;BME280;5547;42.672;23.230;2023-08-06T00:25:28;92257.03;;;16.15;100.00
10988;BME280;5547;42.672;23.230;2023-08-06T00:28:28;92212.41;;;15.83;100.00
10988;BME280;5547;42.672;23.230;2023-08-06T00:31:29;92217.97;;;15.79;100.00
10988;BME280;5547;42.672;23.230;2023-08-06T00:34:29;92187.59;;;16.03;100.00
10988;BME280;5547;42.672;23.230;2023-08-06T00:37:30;92213.66;;;16.17;100.00
10988;BME280;5547;42.672;23.230;2023-08-06T00:40:30;92217.56;;;16.01;100.00
10988;BME280;5547;42.672;23.230;2023-08-06T00:43:30;92215.84;;;15.83;100.00
10988;BME280;5547;42.672;23.230;2023-08-06T00:46:32;92200.59;;;15.74;100.00
10988;BME280;5547;42.672;23.230;2023-08-06T00:49:37;92218.31;;;16.02;100.00
10988;BME280;5547;42.672;23.230;2023-08-06T00:52:38;92225.81;;;15.98;100.00
10988;BME280;5547;42.672;23.230;2023-08-06T00:55:39;92224.69;;;15.89;100.00
10988;BME280;5547;42.672;23.230;2023-08-06T00:58:40;92205.22;;;15.74;100.00
10988;BME280;5547;42.672;23.230;2023-08-06T01:01:40;92203.34;;;15.65;100.00
10988;BME280;5547;42.672;23.230;2023-08-06T01:04:41;92196.03;;;15.66;100.00
10988;BME280;5547;42.672;23.230;2023-08-06T01:08:18;92186.44;;;15.89;100.00
10988;BME280;5547;42.672;23.230;2023-08-06T01:11:38;92185.72;;;15.73;100.00
10988;BME280;5547;42.672;23.230;2023-08-06T01:15:00;92202.06;;;15.61;100.00
10988;BME280;5547;42.672;23.230;2023-08-06T01:18:05;92187.72;;;15.49;100.00
10988;BME280;5547;42.672;23.230;2023-08-06T01:21:06;92152.88;;;15.34;100.00
10988;BME280;5547;42.672;23.230;2023-08-06T01:24:06;92188.56;;;15.55;100.00
10988;BME280;5547;42.672;23.230;2023-08-06T01:27:16;92180.97;;;15.39;100.00
10988;BME280;5547;42.672;23.230;2023-08-06T01:30:25;92176.38;;;15.39;100.00
10988;BME280;5547;42.672;23.230;2023-08-06T01:33:27;92135.53;;;15.15;100.00
10988;BME280;5547;42.672;23.230;2023-08-06T01:36:31;92178.69;;;15.46;100.00
10988;BME280;5547;42.672;23.230;2023-08-06T01:39:33;92141.53;;;15.24;100.00
10988;BME280;5547;42.672;23.230;2023-08-06T01:42:34;92171.47;;;15.52;100.00
10988;BME280;5547;42.672;23.230;2023-08-06T01:45:34;92175.91;;;15.55;100.00
10988;BME280;5547;42.672;23.230;2023-08-06T01:48:34;92167.47;;;15.48;100.00
10988;BME280;5547;42.672;23.230;2023-08-06T01:51:35;92180.53;;;15.55;100.00
10988;BME280;5547;42.672;23.230;2023-08-06T01:54:35;92189.38;;;15.61;100.00
10988;BME280;5547;42.672;23.230;2023-08-06T01:57:36;92160.19;;;15.63;100.00
10988;BME280;5547;42.672;23.230;2023-08-06T02:00:36;92148.44;;;15.61;100.00
10988;BME280;5547;42.672;23.230;2023-08-06T02:03:36;92150.78;;;15.53;100.00
10988;BME280;5547;42.672;23.230;2023-08-06T02:06:37;92120.75;;;15.34;100.00
10988;BME280;5547;42.672;23.230;2023-08-06T02:09:37;92159.91;;;15.61;100.00
10988;BME280;5547;42.672;23.230;2023-08-06T02:12:37;92153.63;;;15.64;100.00
10988;BME280;5547;42.672;23.230;2023-08-06T02:15:45;92164.34;;;15.79;100.00
10988;BME280;5547;42.672;23.230;2023-08-06T02:18:47;92179.56;;;16.03;100.00
10988;BME280;5547;42.672;23.230;2023-08-06T02:21:48;92202.78;;;15.91;100.00
10988;BME280;5547;42.672;23.230;2023-08-06T02:24:49;92202.22;;;15.87;100.00
10988;BME280;5547;42.672;23.230;2023-08-06T02:27:49;92175.81;;;15.80;100.00
10988;BME280;5547;42.672;23.230;2023-08-06T02:30:53;92145.38;;;15.68;100.00
10988;BME280;5547;42.672;23.230;2023-08-06T02:33:53;92148.25;;;15.79;100.00
10988;BME280;5547;42.672;23.230;2023-08-06T02:36:54;92170.72;;;15.82;100.00
10988;BME280;5547;42.672;23.230;2023-08-06T02:39:54;92197.13;;;16.04;100.00
10988;BME280;5547;42.672;23.230;2023-08-06T02:42:54;92207.53;;;16.16;100.00
10988;BME280;5547;42.672;23.230;2023-08-06T02:45:59;92189.72;;;16.13;100.00
10988;BME280;5547;42.672;23.230;2023-08-06T02:48:59;92166.59;;;16.01;100.00
10988;BME280;5547;42.672;23.230;2023-08-06T02:52:00;92146.03;;;15.92;100.00
10988;BME280;5547;42.672;23.230;2023-08-06T02:55:00;92124.97;;;15.85;100.00
10988;BME280;5547;42.672;23.230;2023-08-06T02:58:01;92154.53;;;15.91;100.00
10988;BME280;5547;42.672;23.230;2023-08-06T03:01:04;92152.56;;;15.91;100.00
10988;BME280;5547;42.672;23.230;2023-08-06T03:04:05;92115.31;;;15.93;100.00
10988;BME280;5547;42.672;23.230;2023-08-06T03:07:06;92046.34;;;15.73;100.00
10988;BME280;5547;42.672;23.230;2023-08-06T03:10:06;92109.28;;;15.99;100.00
10988;BME280;5547;42.672;23.230;2023-08-06T03:13:07;92136.84;;;15.99;100.00
10988;BME280;5547;42.672;23.230;2023-08-06T03:16:08;92096.31;;;15.77;100.00
10988;BME280;5547;42.672;23.230;2023-08-06T03:19:08;92068.91;;;15.87;100.00
10988;BME280;5547;42.672;23.230;2023-08-06T03:22:09;92125.66;;;16.01;100.00
10988;BME280;5547;42.672;23.230;2023-08-06T03:25:09;92144.50;;;16.06;100.00
10988;BME280;5547;42.672;23.230;2023-08-06T03:28:09;92134.84;;;16.14;100.00
10988;BME280;5547;42.672;23.230;2023-08-06T03:31:10;92126.25;;;15.90;100.00
10988;BME280;5547;42.672;23.230;2023-08-06T03:34:10;92149.13;;;16.06;100.00
10988;BME280;5547;42.672;23.230;2023-08-06T03:37:11;92159.94;;;16.11;100.00
10988;BME280;5547;42.672;23.230;2023-08-06T03:40:11;92137.72;;;15.75;100.00
10988;BME280;5547;42.672;23.230;2023-08-06T03:43:12;92165.59;;;15.99;100.00
10988;BME280;5547;42.672;23.230;2023-08-06T03:46:12;92159.53;;;15.83;100.00
10988;BME280;5547;42.672;23.230;2023-08-06T03:49:13;92176.25;;;15.93;100.00
10988;BME280;5547;42.672;23.230;2023-08-06T03:52:13;92178.38;;;15.89;100.00
10988;BME280;5547;42.672;23.230;2023-08-06T03:55:14;92169.78;;;16.00;100.00
10988;BME280;5547;42.672;23.230;2023-08-06T03:58:14;92162.13;;;15.92;100.00
10988;BME280;5547;42.672;23.230;2023-08-06T04:01:14;92131.06;;;15.71;100.00
10988;BME280;5547;42.672;23.230;2023-08-06T04:04:15;92181.84;;;16.10;100.00
10988;BME280;5547;42.672;23.230;2023-08-06T04:07:15;92183.09;;;16.29;100.00
10988;BME280;5547;42.672;23.230;2023-08-06T04:10:16;92162.06;;;16.07;100.00
10988;BME280;5547;42.672;23.230;2023-08-06T04:13:16;92200.94;;;16.32;100.00
10988;BME280;5547;42.672;23.230;2023-08-06T04:16:17;92202.88;;;16.32;100.00
10988;BME280;5547;42.672;23.230;2023-08-06T04:19:17;92198.25;;;16.32;100.00
10988;BME280;5547;42.672;23.230;2023-08-06T04:22:18;92188.09;;;16.22;100.00
10988;BME280;5547;42.672;23.230;2023-08-06T04:25:18;92191.81;;;16.45;100.00
10988;BME280;5547;42.672;23.230;2023-08-06T04:28:21;92156.66;;;16.22;100.00
10988;BME280;5547;42.672;23.230;2023-08-06T04:31:22;92116.41;;;16.02;100.00
10988;BME280;5547;42.672;23.230;2023-08-06T04:34:23;92183.63;;;16.33;100.00
10988;BME280;5547;42.672;23.230;2023-08-06T04:37:23;92171.16;;;16.30;100.00
10988;BME280;5547;42.672;23.230;2023-08-06T04:40:24;92185.31;;;16.51;100.00
10988;BME280;5547;42.672;23.230;2023-08-06T04:43:24;92165.25;;;16.47;100.00
10988;BME280;5547;42.672;23.230;2023-08-06T04:46:24;92149.09;;;16.62;100.00
10988;BME280;5547;42.672;23.230;2023-08-06T04:49:25;92138.88;;;16.66;100.00
10988;BME280;5547;42.672;23.230;2023-08-06T04:52:25;92118.72;;;16.50;100.00
10988;BME280;5547;42.672;23.230;2023-08-06T04:55:28;92137.94;;;16.69;100.00
10988;BME280;5547;42.672;23.230;2023-08-06T04:58:28;92123.66;;;16.57;100.00
10988;BME280;5547;42.672;23.230;2023-08-06T05:01:29;92130.34;;;16.67;100.00
10988;BME280;5547;42.672;23.230;2023-08-06T05:04:29;92131.03;;;16.62;100.00
10988;BME280;5547;42.672;23.230;2023-08-06T05:07:29;92125.41;;;16.60;100.00
10988;BME280;5547;42.672;23.230;2023-08-06T05:10:30;92123.53;;;16.66;100.00
10988;BME280;5547;42.672;23.230;2023-08-06T05:13:30;92128.78;;;17.01;100.00
10988;BME280;5547;42.672;23.230;2023-08-06T05:16:31;92136.69;;;17.69;100.00
10988;BME280;5547;42.672;23.230;2023-08-06T05:19:31;92119.91;;;18.17;100.00
10988;BME280;5547;42.672;23.230;2023-08-06T05:22:31;92132.31;;;18.52;100.00
10988;BME280;5547;42.672;23.230;2023-08-06T05:25:34;92160.22;;;18.60;100.00
10988;BME280;5547;42.672;23.230;2023-08-06T05:28:35;92147.31;;;18.75;100.00
10988;BME280;5547;42.672;23.230;2023-08-06T05:31:35;92136.59;;;18.81;100.00
10988;BME280;5547;42.672;23.230;2023-08-06T05:34:35;92127.75;;;18.80;100.00
10988;BME280;5547;42.672;23.230;2023-08-06T05:37:36;92107.59;;;18.59;100.00
10988;BME280;5547;42.672;23.230;2023-08-06T05:40:36;92137.63;;;19.06;100.00
10988;BME280;5547;42.672;23.230;2023-08-06T05:43:37;92139.38;;;19.09;100.00
10988;BME280;5547;42.672;23.230;2023-08-06T05:46:37;92106.50;;;18.94;100.00
10988;BME280;5547;42.672;23.230;2023-08-06T05:49:37;92150.84;;;18.98;100.00
10988;BME280;5547;42.672;23.230;2023-08-06T05:52:38;92144.22;;;18.94;100.00
10988;BME280;5547;42.672;23.230;2023-08-06T05:55:39;92105.00;;;18.81;100.00
10988;BME280;5547;42.672;23.230;2023-08-06T05:58:39;92140.38;;;19.28;100.00
10988;BME280;5547;42.672;23.230;2023-08-06T06:01:40;92166.13;;;19.29;100.00
10988;BME280;5547;42.672;23.230;2023-08-06T06:04:40;92178.19;;;19.85;100.00
10988;BME280;5547;42.672;23.230;2023-08-06T06:07:41;92150.41;;;19.28;100.00
10988;BME280;5547;42.672;23.230;2023-08-06T06:10:41;92148.97;;;19.44;100.00
10988;BME280;5547;42.672;23.230;2023-08-06T06:13:41;92177.22;;;19.88;100.00
10988;BME280;5547;42.672;23.230;2023-08-06T06:16:42;92187.75;;;20.08;100.00
10988;BME280;5547;42.672;23.230;2023-08-06T06:19:42;92166.63;;;19.67;100.00
10988;BME280;5547;42.672;23.230;2023-08-06T06:22:43;92104.09;;;19.18;100.00
10988;BME280;5547;42.672;23.230;2023-08-06T06:25:47;92200.50;;;20.25;100.00
10988;BME280;5547;42.672;23.230;2023-08-06T06:28:48;92176.44;;;20.21;100.00
10988;BME280;5547;42.672;23.230;2023-08-06T06:31:48;92199.75;;;20.07;100.00
10988;BME280;5547;42.672;23.230;2023-08-06T06:34:49;92215.19;;;19.67;100.00
10988;BME280;5547;42.672;23.230;2023-08-06T06:37:49;92225.72;;;19.65;100.00
10988;BME280;5547;42.672;23.230;2023-08-06T06:40:58;92200.63;;;19.20;100.00
10988;BME280;5547;42.672;23.230;2023-08-06T06:43:58;92232.69;;;19.06;100.00
10988;BME280;5547;42.672;23.230;2023-08-06T06:46:59;92234.25;;;19.36;100.00
10988;BME280;5547;42.672;23.230;2023-08-06T06:49:59;92223.41;;;19.19;100.00
10988;BME280;5547;42.672;23.230;2023-08-06T06:52:59;92211.84;;;18.96;100.00
10988;BME280;5547;42.672;23.230;2023-08-06T06:56:03;92231.78;;;19.26;100.00
10988;BME280;5547;42.672;23.230;2023-08-06T06:59:04;92210.94;;;19.21;100.00
10988;BME280;5547;42.672;23.230;2023-08-06T07:02:05;92259.22;;;19.30;100.00
10988;BME280;5547;42.672;23.230;2023-08-06T07:05:06;92228.56;;;19.17;100.00
10988;BME280;5547;42.672;23.230;2023-08-06T07:08:07;92258.81;;;19.66;100.00
10988;BME280;5547;42.672;23.230;2023-08-06T07:11:08;92251.53;;;19.83;100.00
10988;BME280;5547;42.672;23.230;2023-08-06T07:14:08;92259.63;;;20.00;100.00
10988;BME280;5547;42.672;23.230;2023-08-06T07:17:09;92255.00;;;20.18;100.00
10988;BME280;5547;42.672;23.230;2023-08-06T07:20:09;92286.13;;;20.75;100.00
10988;BME280;5547;42.672;23.230;2023-08-06T07:23:10;92284.66;;;20.74;100.00
10988;BME280;5547;42.672;23.230;2023-08-06T07:26:10;92299.13;;;20.93;100.00
10988;BME280;5547;42.672;23.230;2023-08-06T07:29:10;92280.72;;;20.81;100.00
10988;BME280;5547;42.672;23.230;2023-08-06T07:32:11;92294.28;;;21.39;100.00
10988;BME280;5547;42.672;23.230;2023-08-06T07:35:11;92290.25;;;20.93;100.00
10988;BME280;5547;42.672;23.230;2023-08-06T07:38:12;92300.59;;;20.94;100.00
10988;BME280;5547;42.672;23.230;2023-08-06T07:41:13;92282.44;;;20.78;100.00
10988;BME280;5547;42.672;23.230;2023-08-06T07:44:13;92291.06;;;20.60;100.00
10988;BME280;5547;42.672;23.230;2023-08-06T07:47:14;92255.19;;;20.42;100.00
10988;BME280;5547;42.672;23.230;2023-08-06T07:50:14;92289.81;;;20.44;100.00
10988;BME280;5547;42.672;23.230;2023-08-06T07:53:14;92284.91;;;20.36;100.00
10988;BME280;5547;42.672;23.230;2023-08-06T07:56:15;92291.78;;;20.38;100.00
10988;BME280;5547;42.672;23.230;2023-08-06T07:59:15;92286.63;;;20.34;100.00
10988;BME280;5547;42.672;23.230;2023-08-06T08:02:16;92280.00;;;20.41;100.00
10988;BME280;5547;42.672;23.230;2023-08-06T08:05:16;92275.81;;;20.85;100.00
10988;BME280;5547;42.672;23.230;2023-08-06T08:08:17;92271.63;;;20.55;100.00
10988;BME280;5547;42.672;23.230;2023-08-06T08:11:17;92267.72;;;19.94;100.00
10988;BME280;5547;42.672;23.230;2023-08-06T08:14:18;92255.00;;;20.18;100.00
10988;BME280;5547;42.672;23.230;2023-08-06T08:17:19;92267.94;;;20.70;100.00
10988;BME280;5547;42.672;23.230;2023-08-06T08:20:21;92275.34;;;21.50;100.00
10988;BME280;5547;42.672;23.230;2023-08-06T08:23:21;92266.88;;;21.71;100.00
10988;BME280;5547;42.672;23.230;2023-08-06T08:26:21;92273.59;;;22.00;100.00
10988;BME280;5547;42.672;23.230;2023-08-06T08:29:22;92275.16;;;22.26;100.00
10988;BME280;5547;42.672;23.230;2023-08-06T08:32:23;92238.25;;;22.47;100.00
10988;BME280;5547;42.672;23.230;2023-08-06T08:35:24;92248.22;;;22.63;100.00
10988;BME280;5547;42.672;23.230;2023-08-06T08:38:24;92278.19;;;22.96;100.00
10988;BME280;5547;42.672;23.230;2023-08-06T08:41:27;92259.19;;;23.01;100.00
10988;BME280;5547;42.672;23.230;2023-08-06T08:44:28;92283.44;;;23.37;100.00
10988;BME280;5547;42.672;23.230;2023-08-06T08:47:30;92262.22;;;23.36;100.00
10988;BME280;5547;42.672;23.230;2023-08-06T08:50:31;92275.63;;;23.09;100.00
10988;BME280;5547;42.672;23.230;2023-08-06T08:53:31;92265.97;;;23.14;100.00
10988;BME280;5547;42.672;23.230;2023-08-06T08:56:32;92249.09;;;22.96;100.00
10988;BME280;5547;42.672;23.230;2023-08-06T08:59:33;92267.97;;;22.58;100.00
10988;BME280;5547;42.672;23.230;2023-08-06T09:02:34;92256.34;;;23.13;100.00
10988;BME280;5547;42.672;23.230;2023-08-06T09:05:36;92238.28;;;22.72;100.00
10988;BME280;5547;42.672;23.230;2023-08-06T09:08:51;92251.78;;;23.45;100.00
10988;BME280;5547;42.672;23.230;2023-08-06T09:11:59;92250.44;;;23.71;100.00
10988;BME280;5547;42.672;23.230;2023-08-06T09:15:01;92254.22;;;23.87;100.00
10988;BME280;5547;42.672;23.230;2023-08-06T09:18:09;92235.63;;;23.91;100.00
10988;BME280;5547;42.672;23.230;2023-08-06T09:21:14;92233.59;;;23.59;100.00
10988;BME280;5547;42.672;23.230;2023-08-06T09:24:18;92245.16;;;23.41;100.00
10988;BME280;5547;42.672;23.230;2023-08-06T09:27:18;92248.13;;;23.81;100.00
10988;BME280;5547;42.672;23.230;2023-08-06T09:30:37;92258.69;;;24.49;100.00
10988;BME280;5547;42.672;23.230;2023-08-06T09:33:38;92230.25;;;24.04;82.14
10988;BME280;5547;42.672;23.230;2023-08-06T09:36:47;92239.88;;;23.86;87.50
10988;BME280;5547;42.672;23.230;2023-08-06T09:39:48;92221.19;;;23.64;86.00
10988;BME280;5547;42.672;23.230;2023-08-06T09:42:48;92228.97;;;23.73;88.64
10988;BME280;5547;42.672;23.230;2023-08-06T09:45:51;92221.34;;;24.36;87.90
10988;BME280;5547;42.672;23.230;2023-08-06T09:48:51;92231.78;;;24.78;85.49
10988;BME280;5547;42.672;23.230;2023-08-06T09:51:52;92243.47;;;24.86;83.21
10988;BME280;5547;42.672;23.230;2023-08-06T09:54:55;92246.25;;;24.08;78.07
10988;BME280;5547;42.672;23.230;2023-08-06T09:57:58;92233.53;;;23.02;82.76
10988;BME280;5547;42.672;23.230;2023-08-06T10:01:00;92239.66;;;23.27;83.09
10988;BME280;5547;42.672;23.230;2023-08-06T10:04:05;92244.25;;;23.14;84.39
10988;BME280;5547;42.672;23.230;2023-08-06T10:07:06;92217.31;;;22.97;85.28
10988;BME280;5547;42.672;23.230;2023-08-06T10:10:07;92241.78;;;23.35;81.72
10988;BME280;5547;42.672;23.230;2023-08-06T10:13:08;92246.25;;;23.13;84.23
10988;BME280;5547;42.672;23.230;2023-08-06T10:16:09;92232.09;;;23.01;83.32
10988;BME280;5547;42.672;23.230;2023-08-06T10:19:11;92251.47;;;23.30;80.23
10988;BME280;5547;42.672;23.230;2023-08-06T10:22:16;92245.91;;;23.79;81.57
10988;BME280;5547;42.672;23.230;2023-08-06T10:25:17;92206.88;;;23.82;78.15
10988;BME280;5547;42.672;23.230;2023-08-06T10:28:18;92221.75;;;23.95;77.96
10988;BME280;5547;42.672;23.230;2023-08-06T10:31:19;92257.66;;;23.87;74.11
10988;BME280;5547;42.672;23.230;2023-08-06T10:34:20;92257.91;;;24.03;75.92
10988;BME280;5547;42.672;23.230;2023-08-06T10:37:20;92226.47;;;23.75;78.29
10988;BME280;5547;42.672;23.230;2023-08-06T10:40:21;92269.38;;;23.39;78.24
10988;BME280;5547;42.672;23.230;2023-08-06T10:43:32;92270.59;;;23.38;78.12
10988;BME280;5547;42.672;23.230;2023-08-06T10:46:33;92281.06;;;23.28;76.20
10988;BME280;5547;42.672;23.230;2023-08-06T10:49:33;92283.75;;;23.09;78.61
10988;BME280;5547;42.672;23.230;2023-08-06T10:52:34;92278.97;;;23.40;80.44
10988;BME280;5547;42.672;23.230;2023-08-06T10:55:35;92276.34;;;23.10;80.64
10988;BME280;5547;42.672;23.230;2023-08-06T10:58:35;92289.25;;;23.47;82.10
10988;BME280;5547;42.672;23.230;2023-08-06T11:01:35;92285.22;;;24.10;78.18
10988;BME280;5547;42.672;23.230;2023-08-06T11:04:36;92297.41;;;22.98;78.47
10988;BME280;5547;42.672;23.230;2023-08-06T11:07:37;92294.09;;;22.26;88.59
10988;BME280;5547;42.672;23.230;2023-08-06T11:10:37;92265.66;;;21.08;100.00
10988;BME280;5547;42.672;23.230;2023-08-06T11:13:45;92295.94;;;20.55;100.00
10988;BME280;5547;42.672;23.230;2023-08-06T11:16:46;92287.09;;;19.93;100.00
10988;BME280;5547;42.672;23.230;2023-08-06T11:19:47;92247.72;;;19.36;100.00
10988;BME280;5547;42.672;23.230;2023-08-06T11:22:47;92284.28;;;19.42;100.00
10988;BME280;5547;42.672;23.230;2023-08-06T11:25:48;92285.22;;;19.28;100.00
10988;BME280;5547;42.672;23.230;2023-08-06T11:28:49;92250.88;;;19.28;100.00
10988;BME280;5547;42.672;23.230;2023-08-06T11:31:49;92270.94;;;20.15;100.00
10988;BME280;5547;42.672;23.230;2023-08-06T11:34:50;92281.69;;;20.83;100.00
10988;BME280;5547;42.672;23.230;2023-08-06T11:37:50;92261.00;;;20.97;100.00
10988;BME280;5547;42.672;23.230;2023-08-06T11:40:51;92288.66;;;21.31;100.00
10988;BME280;5547;42.672;23.230;2023-08-06T11:43:51;92280.81;;;21.80;100.00
10988;BME280;5547;42.672;23.230;2023-08-06T11:46:53;92268.28;;;22.13;100.00
10988;BME280;5547;42.672;23.230;2023-08-06T11:49:56;92281.84;;;22.49;100.00
10988;BME280;5547;42.672;23.230;2023-08-06T11:52:58;92281.00;;;22.30;100.00
10988;BME280;5547;42.672;23.230;2023-08-06T11:55:58;92282.16;;;22.70;100.00
10988;BME280;5547;42.672;23.230;2023-08-06T11:59:00;92242.84;;;22.82;100.00
10988;BME280;5547;42.672;23.230;2023-08-06T12:02:04;92245.63;;;23.01;100.00
10988;BME280;5547;42.672;23.230;2023-08-06T12:05:17;92263.84;;;23.63;100.00
10988;BME280;5547;42.672;23.230;2023-08-06T12:08:20;92271.81;;;24.31;100.00
10988;BME280;5547;42.672;23.230;2023-08-06T12:11:21;92273.19;;;24.70;100.00
10988;BME280;5547;42.672;23.230;2023-08-06T12:14:21;92267.75;;;23.68;100.00
10988;BME280;5547;42.672;23.230;2023-08-06T12:17:24;92271.22;;;23.68;100.00
10988;BME280;5547;42.672;23.230;2023-08-06T12:20:24;92252.72;;;23.48;100.00
10988;BME280;5547;42.672;23.230;2023-08-06T12:23:25;92267.75;;;23.68;100.00
10988;BME280;5547;42.672;23.230;2023-08-06T12:26:25;92217.16;;;23.33;100.00
10988;BME280;5547;42.672;23.230;2023-08-06T12:29:26;92237.72;;;23.03;100.00
10988;BME280;5547;42.672;23.230;2023-08-06T12:32:26;92252.28;;;23.25;100.00
10988;BME280;5547;42.672;23.230;2023-08-06T12:35:27;92274.31;;;23.59;100.00
10988;BME280;5547;42.672;23.230;2023-08-06T12:38:27;92274.88;;;23.71;100.00
10988;BME280;5547;42.672;23.230;2023-08-06T12:41:28;92247.81;;;23.46;100.00
10988;BME280;5547;42.672;23.230;2023-08-06T12:44:28;92262.19;;;23.60;100.00
10988;BME280;5547;42.672;23.230;2023-08-06T12:47:28;92269.28;;;23.44;100.00
10988;BME280;5547;42.672;23.230;2023-08-06T12:50:29;92263.59;;;23.04;100.00
10988;BME280;5547;42.672;23.230;2023-08-06T12:53:29;92254.31;;;22.70;100.00
10988;BME280;5547;42.672;23.230;2023-08-06T12:56:30;92256.38;;;22.82;100.00
10988;BME280;5547;42.672;23.230;2023-08-06T12:59:30;92269.94;;;22.82;100.00
10988;BME280;5547;42.672;23.230;2023-08-06T13:02:31;92240.88;;;22.83;100.00
10988;BME280;5547;42.672;23.230;2023-08-06T13:05:31;92263.59;;;23.04;100.00
10988;BME280;5547;42.672;23.230;2023-08-06T13:08:32;92256.19;;;23.05;100.00
10988;BME280;5547;42.672;23.230;2023-08-06T13:11:32;92265.84;;;23.00;100.00
10988;BME280;5547;42.672;23.230;2023-08-06T13:14:33;92264.28;;;22.80;100.00
10988;BME280;5547;42.672;23.230;2023-08-06T13:17:33;92258.16;;;22.80;100.00
10988;BME280;5547;42.672;23.230;2023-08-06T13:20:34;92266.34;;;22.74;100.00
10988;BME280;5547;42.672;23.230;2023-08-06T13:23:34;92251.75;;;22.53;100.00
10988;BME280;5547;42.672;23.230;2023-08-06T13:26:35;92279.28;;;22.62;100.00
10988;BME280;5547;42.672;23.230;2023-08-06T13:29:35;92290.44;;;22.53;100.00
10988;BME280;5547;42.672;23.230;2023-08-06T13:32:36;92262.50;;;22.89;100.00
10988;BME280;5547;42.672;23.230;2023-08-06T13:35:37;92280.41;;;22.97;100.00
10988;BME280;5547;42.672;23.230;2023-08-06T13:38:37;92276.56;;;23.36;100.00
10988;BME280;5547;42.672;23.230;2023-08-06T13:41:38;92251.09;;;23.39;100.00
10988;BME280;5547;42.672;23.230;2023-08-06T13:44:41;92267.31;;;23.45;100.00
10988;BME280;5547;42.672;23.230;2023-08-06T13:47:42;92272.31;;;23.98;100.00
10988;BME280;5547;42.672;23.230;2023-08-06T13:50:42;92273.91;;;24.06;100.00
10988;BME280;5547;42.672;23.230;2023-08-06T13:53:42;92276.81;;;24.27;100.00
10988;BME280;5547;42.672;23.230;2023-08-06T13:56:43;92240.81;;;24.08;82.66
10988;BME280;5547;42.672;23.230;2023-08-06T13:59:43;92275.72;;;23.85;88.49
10988;BME280;5547;42.672;23.230;2023-08-06T14:02:44;92268.28;;;24.37;83.55
10988;BME280;5547;42.672;23.230;2023-08-06T14:05:45;92262.31;;;24.06;83.05
10988;BME280;5547;42.672;23.230;2023-08-06T14:08:45;92214.22;;;23.87;76.44
10988;BME280;5547;42.672;23.230;2023-08-06T14:11:45;92262.78;;;24.56;72.98
10988;BME280;5547;42.672;23.230;2023-08-06T14:14:46;92251.69;;;24.21;74.57
10988;BME280;5547;42.672;23.230;2023-08-06T14:17:46;92268.00;;;24.53;68.31
10988;BME280;5547;42.672;23.230;2023-08-06T14:20:47;92257.50;;;24.90;64.97
10988;BME280;5547;42.672;23.230;2023-08-06T14:23:47;92252.59;;;24.88;64.49
10988;BME280;5547;42.672;23.230;2023-08-06T14:26:48;92259.50;;;25.56;60.69
10988;BME280;5547;42.672;23.230;2023-08-06T14:29:48;92265.56;;;25.96;59.24
10988;BME280;5547;42.672;23.230;2023-08-06T14:32:49;92280.44;;;26.09;54.61
10988;BME280;5547;42.672;23.230;2023-08-06T14:35:49;92289.97;;;27.36;55.47
10988;BME280;5547;42.672;23.230;2023-08-06T14:38:49;92262.44;;;25.92;55.84
10988;BME280;5547;42.672;23.230;2023-08-06T14:41:50;92282.00;;;25.43;55.75
10988;BME280;5547;42.672;23.230;2023-08-06T14:44:50;92286.13;;;24.64;59.32
10988;BME280;5547;42.672;23.230;2023-08-06T14:47:51;92272.44;;;24.57;58.17
10988;BME280;5547;42.672;23.230;2023-08-06T14:50:51;92284.94;;;25.58;55.77
10988;BME280;5547;42.672;23.230;2023-08-06T14:53:51;92192.16;;;25.91;53.58
10988;BME280;5547;42.672;23.230;2023-08-06T14:56:52;92273.50;;;26.50;54.97
10988;BME280;5547;42.672;23.230;2023-08-06T14:59:53;92270.44;;;26.95;54.69
10988;BME280;5547;42.672;23.230;2023-08-06T15:02:54;92249.25;;;27.09;54.20
10988;BME280;5547;42.672;23.230;2023-08-06T15:05:54;92263.19;;;26.98;53.84
10988;BME280;5547;42.672;23.230;2023-08-06T15:08:55;92270.31;;;26.80;54.96
10988;BME280;5547;42.672;23.230;2023-08-06T15:11:58;92233.09;;;26.40;56.64
10988;BME280;5547;42.672;23.230;2023-08-06T15:14:59;92262.91;;;26.59;52.94
10988;BME280;5547;42.672;23.230;2023-08-06T15:18:01;92246.19;;;26.21;54.04
10988;BME280;5547;42.672;23.230;2023-08-06T15:21:01;92241.50;;;25.74;58.08
10988;BME280;5547;42.672;23.230;2023-08-06T15:24:01;92250.19;;;24.85;62.31
10988;BME280;5547;42.672;23.230;2023-08-06T15:27:02;92204.13;;;24.47;63.93
10988;BME280;5547;42.672;23.230;2023-08-06T15:30:06;92212.09;;;24.58;64.69
10988;BME280;5547;42.672;23.230;2023-08-06T15:33:06;92240.16;;;25.33;63.37
10988;BME280;5547;42.672;23.230;2023-08-06T15:36:07;92129.38;;;24.27;65.85
10988;BME280;5547;42.672;23.230;2023-08-06T15:39:08;92214.22;;;24.92;65.18
10988;BME280;5547;42.672;23.230;2023-08-06T15:42:08;92258.25;;;25.17;63.55
10988;BME280;5547;42.672;23.230;2023-08-06T15:45:09;92250.28;;;25.32;58.82
10988;BME280;5547;42.672;23.230;2023-08-06T15:48:10;92261.66;;;25.57;60.01
10988;BME280;5547;42.672;23.230;2023-08-06T15:51:10;92267.97;;;25.52;57.31